sensor_id;sensor_type;location;lat;lon;timestamp;P1;durP1;ratioP1;P2;durP2;ratioP2
2011;SDS011;1009;51.436;6.972;2022-11-22T00:00:24;5.70;;;2.57;;
2011;SDS011;1009;51.436;6.972;2022-11-22T00:02:52;8.13;;;3.10;;
2011;SDS011;1009;51.436;6.972;2022-11-22T00:05:20;5.23;;;2.00;;
2011;SDS011;1009;51.436;6.972;2022-11-22T00:07:47;7.70;;;2.93;;
2011;SDS011;1009;51.436;6.972;2022-11-22T00:10:14;4.90;;;2.50;;
2011;SDS011;1009;51.436;6.972;2022-11-22T00:12:41;3.73;;;2.40;;
2011;SDS011;1009;51.436;6.972;2022-11-22T00:15:08;6.77;;;2.87;;
2011;SDS011;1009;51.436;6.972;2022-11-22T00:17:36;10.03;;;2.73;;
2011;SDS011;1009;51.436;6.972;2022-11-22T00:20:03;3.47;;;2.17;;
2011;SDS011;1009;51.436;6.972;2022-11-22T00:22:33;6.20;;;2.60;;
2011;SDS011;1009;51.436;6.972;2022-11-22T00:25:00;6.23;;;3.07;;
2011;SDS011;1009;51.436;6.972;2022-11-22T00:27:27;4.50;;;2.70;;
2011;SDS011;1009;51.436;6.972;2022-11-22T00:29:53;4.77;;;3.00;;
2011;SDS011;1009;51.436;6.972;2022-11-22T00:32:20;3.53;;;2.30;;
2011;SDS011;1009;51.436;6.972;2022-11-22T00:34:47;5.40;;;2.90;;
2011;SDS011;1009;51.436;6.972;2022-11-22T00:37:14;4.50;;;2.60;;
2011;SDS011;1009;51.436;6.972;2022-11-22T00:39:42;7.80;;;3.03;;
2011;SDS011;1009;51.436;6.972;2022-11-22T00:42:08;3.40;;;2.30;;
2011;SDS011;1009;51.436;6.972;2022-11-22T00:44:35;4.43;;;2.77;;
2011;SDS011;1009;51.436;6.972;2022-11-22T00:47:02;5.30;;;2.57;;
2011;SDS011;1009;51.436;6.972;2022-11-22T00:49:29;5.23;;;2.57;;
2011;SDS011;1009;51.436;6.972;2022-11-22T00:51:55;4.97;;;2.90;;
2011;SDS011;1009;51.436;6.972;2022-11-22T00:54:22;5.90;;;2.67;;
2011;SDS011;1009;51.436;6.972;2022-11-22T00:56:50;6.30;;;3.37;;
2011;SDS011;1009;51.436;6.972;2022-11-22T00:59:17;3.83;;;2.60;;
2011;SDS011;1009;51.436;6.972;2022-11-22T01:01:43;3.43;;;2.73;;
2011;SDS011;1009;51.436;6.972;2022-11-22T01:04:10;6.77;;;2.83;;
2011;SDS011;1009;51.436;6.972;2022-11-22T01:06:37;5.50;;;3.30;;
2011;SDS011;1009;51.436;6.972;2022-11-22T01:09:04;5.63;;;3.10;;
2011;SDS011;1009;51.436;6.972;2022-11-22T01:11:30;4.43;;;3.40;;
2011;SDS011;1009;51.436;6.972;2022-11-22T01:13:58;7.23;;;3.43;;
2011;SDS011;1009;51.436;6.972;2022-11-22T01:16:25;5.40;;;2.97;;
2011;SDS011;1009;51.436;6.972;2022-11-22T01:18:52;5.10;;;3.60;;
2011;SDS011;1009;51.436;6.972;2022-11-22T01:21:19;5.67;;;3.27;;
2011;SDS011;1009;51.436;6.972;2022-11-22T01:23:45;5.10;;;2.87;;
2011;SDS011;1009;51.436;6.972;2022-11-22T01:26:12;4.90;;;3.40;;
2011;SDS011;1009;51.436;6.972;2022-11-22T01:28:39;6.00;;;4.03;;
2011;SDS011;1009;51.436;6.972;2022-11-22T01:31:07;5.60;;;3.43;;
2011;SDS011;1009;51.436;6.972;2022-11-22T01:33:34;5.33;;;3.70;;
2011;SDS011;1009;51.436;6.972;2022-11-22T01:36:01;9.60;;;3.87;;
2011;SDS011;1009;51.436;6.972;2022-11-22T01:38:28;8.73;;;4.43;;
2011;SDS011;1009;51.436;6.972;2022-11-22T01:40:55;5.37;;;3.47;;
2011;SDS011;1009;51.436;6.972;2022-11-22T01:43:23;5.43;;;3.33;;
2011;SDS011;1009;51.436;6.972;2022-11-22T01:45:51;5.93;;;3.77;;
2011;SDS011;1009;51.436;6.972;2022-11-22T01:48:21;6.07;;;3.40;;
2011;SDS011;1009;51.436;6.972;2022-11-22T01:50:55;7.53;;;4.07;;
2011;SDS011;1009;51.436;6.972;2022-11-22T01:53:27;6.43;;;3.60;;
2011;SDS011;1009;51.436;6.972;2022-11-22T01:55:56;8.50;;;3.53;;
2011;SDS011;1009;51.436;6.972;2022-11-22T01:58:25;5.00;;;3.10;;
2011;SDS011;1009;51.436;6.972;2022-11-22T02:00:55;10.63;;;3.50;;
2011;SDS011;1009;51.436;6.972;2022-11-22T02:03:23;6.60;;;3.40;;
2011;SDS011;1009;51.436;6.972;2022-11-22T02:05:53;7.90;;;3.67;;
2011;SDS011;1009;51.436;6.972;2022-11-22T02:08:21;6.27;;;3.07;;
2011;SDS011;1009;51.436;6.972;2022-11-22T02:10:54;9.60;;;3.80;;
2011;SDS011;1009;51.436;6.972;2022-11-22T02:13:24;8.30;;;3.70;;
2011;SDS011;1009;51.436;6.972;2022-11-22T02:15:52;8.63;;;3.63;;
2011;SDS011;1009;51.436;6.972;2022-11-22T02:18:19;4.17;;;3.70;;
2011;SDS011;1009;51.436;6.972;2022-11-22T02:20:47;5.73;;;3.20;;
2011;SDS011;1009;51.436;6.972;2022-11-22T02:23:16;7.33;;;3.97;;
2011;SDS011;1009;51.436;6.972;2022-11-22T02:25:53;9.37;;;3.60;;
2011;SDS011;1009;51.436;6.972;2022-11-22T02:28:21;7.80;;;4.27;;
2011;SDS011;1009;51.436;6.972;2022-11-22T02:30:48;7.37;;;3.73;;
2011;SDS011;1009;51.436;6.972;2022-11-22T02:33:14;5.50;;;3.03;;
2011;SDS011;1009;51.436;6.972;2022-11-22T02:35:41;11.00;;;3.80;;
2011;SDS011;1009;51.436;6.972;2022-11-22T02:38:10;7.03;;;3.13;;
2011;SDS011;1009;51.436;6.972;2022-11-22T02:40:39;8.90;;;2.80;;
2011;SDS011;1009;51.436;6.972;2022-11-22T02:43:10;6.13;;;2.90;;
2011;SDS011;1009;51.436;6.972;2022-11-22T02:45:40;7.30;;;3.23;;
2011;SDS011;1009;51.436;6.972;2022-11-22T02:48:07;9.30;;;3.50;;
2011;SDS011;1009;51.436;6.972;2022-11-22T02:50:36;6.97;;;3.03;;
2011;SDS011;1009;51.436;6.972;2022-11-22T02:53:03;4.47;;;2.83;;
2011;SDS011;1009;51.436;6.972;2022-11-22T02:55:30;6.60;;;3.30;;
2011;SDS011;1009;51.436;6.972;2022-11-22T02:57:57;7.53;;;3.50;;
2011;SDS011;1009;51.436;6.972;2022-11-22T03:00:25;8.10;;;2.90;;
2011;SDS011;1009;51.436;6.972;2022-11-22T03:02:52;6.00;;;3.20;;
2011;SDS011;1009;51.436;6.972;2022-11-22T03:05:19;11.57;;;3.30;;
2011;SDS011;1009;51.436;6.972;2022-11-22T03:07:46;11.10;;;3.40;;
2011;SDS011;1009;51.436;6.972;2022-11-22T03:10:12;8.90;;;2.93;;
2011;SDS011;1009;51.436;6.972;2022-11-22T03:12:40;15.10;;;3.87;;
2011;SDS011;1009;51.436;6.972;2022-11-22T03:15:07;9.37;;;3.40;;
2011;SDS011;1009;51.436;6.972;2022-11-22T03:17:36;6.60;;;2.80;;
2011;SDS011;1009;51.436;6.972;2022-11-22T03:20:03;12.33;;;3.50;;
2011;SDS011;1009;51.436;6.972;2022-11-22T03:22:30;6.40;;;2.67;;
2011;SDS011;1009;51.436;6.972;2022-11-22T03:24:57;11.33;;;3.10;;
2011;SDS011;1009;51.436;6.972;2022-11-22T03:27:24;11.13;;;3.37;;
2011;SDS011;1009;51.436;6.972;2022-11-22T03:29:50;11.40;;;4.00;;
2011;SDS011;1009;51.436;6.972;2022-11-22T03:32:17;14.00;;;3.73;;
2011;SDS011;1009;51.436;6.972;2022-11-22T03:34:45;9.60;;;2.70;;
2011;SDS011;1009;51.436;6.972;2022-11-22T03:37:12;8.40;;;3.10;;
2011;SDS011;1009;51.436;6.972;2022-11-22T03:39:38;6.03;;;3.40;;
2011;SDS011;1009;51.436;6.972;2022-11-22T03:42:05;5.90;;;2.80;;
2011;SDS011;1009;51.436;6.972;2022-11-22T03:44:32;7.20;;;2.87;;
2011;SDS011;1009;51.436;6.972;2022-11-22T03:46:58;8.43;;;3.33;;
2011;SDS011;1009;51.436;6.972;2022-11-22T03:49:25;12.87;;;3.60;;
2011;SDS011;1009;51.436;6.972;2022-11-22T03:51:53;7.87;;;3.30;;
2011;SDS011;1009;51.436;6.972;2022-11-22T03:54:20;10.73;;;3.80;;
2011;SDS011;1009;51.436;6.972;2022-11-22T03:56:47;7.13;;;3.10;;
2011;SDS011;1009;51.436;6.972;2022-11-22T03:59:13;12.93;;;3.83;;
2011;SDS011;1009;51.436;6.972;2022-11-22T04:01:40;10.70;;;4.00;;
2011;SDS011;1009;51.436;6.972;2022-11-22T04:04:07;11.80;;;3.80;;
2011;SDS011;1009;51.436;6.972;2022-11-22T04:06:33;10.57;;;3.37;;
2011;SDS011;1009;51.436;6.972;2022-11-22T04:09:01;13.27;;;4.10;;
2011;SDS011;1009;51.436;6.972;2022-11-22T04:11:28;9.33;;;3.50;;
2011;SDS011;1009;51.436;6.972;2022-11-22T04:13:55;12.63;;;4.60;;
2011;SDS011;1009;51.436;6.972;2022-11-22T04:16:39;11.30;;;3.80;;
2011;SDS011;1009;51.436;6.972;2022-11-22T04:19:06;11.73;;;3.97;;
2011;SDS011;1009;51.436;6.972;2022-11-22T04:21:33;11.73;;;4.13;;
2011;SDS011;1009;51.436;6.972;2022-11-22T04:23:59;12.80;;;4.47;;
2011;SDS011;1009;51.436;6.972;2022-11-22T04:26:44;16.50;;;4.40;;
2011;SDS011;1009;51.436;6.972;2022-11-22T04:29:11;11.77;;;4.00;;
2011;SDS011;1009;51.436;6.972;2022-11-22T04:31:38;8.80;;;3.90;;
2011;SDS011;1009;51.436;6.972;2022-11-22T04:34:22;7.70;;;3.70;;
2011;SDS011;1009;51.436;6.972;2022-11-22T04:36:49;7.17;;;3.80;;
2011;SDS011;1009;51.436;6.972;2022-11-22T04:39:16;11.50;;;3.93;;
2011;SDS011;1009;51.436;6.972;2022-11-22T04:41:42;10.43;;;3.73;;
2011;SDS011;1009;51.436;6.972;2022-11-22T04:44:11;10.13;;;3.40;;
2011;SDS011;1009;51.436;6.972;2022-11-22T04:46:55;13.10;;;4.23;;
2011;SDS011;1009;51.436;6.972;2022-11-22T04:49:22;10.20;;;3.23;;
2011;SDS011;1009;51.436;6.972;2022-11-22T04:51:49;18.60;;;4.43;;
2011;SDS011;1009;51.436;6.972;2022-11-22T04:54:33;10.93;;;4.30;;
2011;SDS011;1009;51.436;6.972;2022-11-22T04:57:01;10.90;;;3.90;;
2011;SDS011;1009;51.436;6.972;2022-11-22T04:59:27;11.60;;;3.80;;
2011;SDS011;1009;51.436;6.972;2022-11-22T05:01:54;10.10;;;3.23;;
2011;SDS011;1009;51.436;6.972;2022-11-22T05:04:21;11.20;;;4.60;;
2011;SDS011;1009;51.436;6.972;2022-11-22T05:06:48;12.37;;;4.20;;
2011;SDS011;1009;51.436;6.972;2022-11-22T05:09:15;13.20;;;4.20;;
2011;SDS011;1009;51.436;6.972;2022-11-22T05:11:42;11.40;;;3.83;;
2011;SDS011;1009;51.436;6.972;2022-11-22T05:14:10;15.20;;;3.43;;
2011;SDS011;1009;51.436;6.972;2022-11-22T05:16:37;8.30;;;3.10;;
2011;SDS011;1009;51.436;6.972;2022-11-22T05:19:04;14.17;;;4.73;;
2011;SDS011;1009;51.436;6.972;2022-11-22T05:21:31;10.00;;;3.20;;
2011;SDS011;1009;51.436;6.972;2022-11-22T05:24:01;13.60;;;4.10;;
2011;SDS011;1009;51.436;6.972;2022-11-22T05:26:28;9.00;;;3.60;;
2011;SDS011;1009;51.436;6.972;2022-11-22T05:28:56;14.67;;;3.97;;
2011;SDS011;1009;51.436;6.972;2022-11-22T05:31:25;16.70;;;3.70;;
2011;SDS011;1009;51.436;6.972;2022-11-22T05:33:53;11.70;;;3.07;;
2011;SDS011;1009;51.436;6.972;2022-11-22T05:36:20;8.90;;;3.07;;
2011;SDS011;1009;51.436;6.972;2022-11-22T05:38:48;8.23;;;3.00;;
2011;SDS011;1009;51.436;6.972;2022-11-22T05:41:15;9.63;;;3.20;;
2011;SDS011;1009;51.436;6.972;2022-11-22T05:43:42;13.70;;;4.00;;
2011;SDS011;1009;51.436;6.972;2022-11-22T05:46:10;14.33;;;3.27;;
2011;SDS011;1009;51.436;6.972;2022-11-22T05:48:40;11.10;;;4.20;;
2011;SDS011;1009;51.436;6.972;2022-11-22T05:51:08;11.47;;;3.00;;
2011;SDS011;1009;51.436;6.972;2022-11-22T05:53:37;10.43;;;3.17;;
2011;SDS011;1009;51.436;6.972;2022-11-22T05:56:04;14.17;;;3.23;;
2011;SDS011;1009;51.436;6.972;2022-11-22T05:58:32;12.03;;;4.43;;
2011;SDS011;1009;51.436;6.972;2022-11-22T06:01:02;13.43;;;3.70;;
2011;SDS011;1009;51.436;6.972;2022-11-22T06:03:30;10.57;;;3.70;;
2011;SDS011;1009;51.436;6.972;2022-11-22T06:05:59;12.73;;;2.90;;
2011;SDS011;1009;51.436;6.972;2022-11-22T06:08:27;10.63;;;3.07;;
2011;SDS011;1009;51.436;6.972;2022-11-22T06:10:54;11.20;;;3.40;;
2011;SDS011;1009;51.436;6.972;2022-11-22T06:13:23;13.97;;;3.50;;
2011;SDS011;1009;51.436;6.972;2022-11-22T06:15:50;13.60;;;3.23;;
2011;SDS011;1009;51.436;6.972;2022-11-22T06:18:16;10.27;;;3.30;;
2011;SDS011;1009;51.436;6.972;2022-11-22T06:20:43;9.60;;;3.00;;
2011;SDS011;1009;51.436;6.972;2022-11-22T06:23:11;9.30;;;3.20;;
2011;SDS011;1009;51.436;6.972;2022-11-22T06:25:39;15.30;;;4.00;;
2011;SDS011;1009;51.436;6.972;2022-11-22T06:28:05;13.13;;;3.60;;
2011;SDS011;1009;51.436;6.972;2022-11-22T06:30:32;14.70;;;4.10;;
2011;SDS011;1009;51.436;6.972;2022-11-22T06:32:59;10.93;;;3.80;;
2011;SDS011;1009;51.436;6.972;2022-11-22T06:35:26;14.07;;;3.80;;
2011;SDS011;1009;51.436;6.972;2022-11-22T06:37:52;14.53;;;4.80;;
2011;SDS011;1009;51.436;6.972;2022-11-22T06:40:20;11.27;;;3.67;;
2011;SDS011;1009;51.436;6.972;2022-11-22T06:42:47;8.77;;;3.40;;
2011;SDS011;1009;51.436;6.972;2022-11-22T06:45:14;7.23;;;3.70;;
2011;SDS011;1009;51.436;6.972;2022-11-22T06:47:40;12.17;;;4.20;;
2011;SDS011;1009;51.436;6.972;2022-11-22T06:50:07;9.57;;;3.67;;
2011;SDS011;1009;51.436;6.972;2022-11-22T06:52:34;10.03;;;3.27;;
2011;SDS011;1009;51.436;6.972;2022-11-22T06:55:01;16.57;;;3.67;;
2011;SDS011;1009;51.436;6.972;2022-11-22T06:57:29;9.67;;;3.50;;
2011;SDS011;1009;51.436;6.972;2022-11-22T06:59:56;13.37;;;3.70;;
2011;SDS011;1009;51.436;6.972;2022-11-22T07:02:23;14.07;;;4.27;;
2011;SDS011;1009;51.436;6.972;2022-11-22T07:04:50;14.57;;;3.53;;
2011;SDS011;1009;51.436;6.972;2022-11-22T07:07:16;11.90;;;3.70;;
2011;SDS011;1009;51.436;6.972;2022-11-22T07:09:43;11.83;;;3.47;;
2011;SDS011;1009;51.436;6.972;2022-11-22T07:12:10;8.70;;;3.23;;
2011;SDS011;1009;51.436;6.972;2022-11-22T07:14:38;16.23;;;4.23;;
2011;SDS011;1009;51.436;6.972;2022-11-22T07:17:04;9.80;;;3.73;;
2011;SDS011;1009;51.436;6.972;2022-11-22T07:19:31;10.90;;;3.80;;
2011;SDS011;1009;51.436;6.972;2022-11-22T07:21:58;10.00;;;2.97;;
2011;SDS011;1009;51.436;6.972;2022-11-22T07:24:25;16.20;;;4.47;;
2011;SDS011;1009;51.436;6.972;2022-11-22T07:26:51;10.63;;;3.70;;
2011;SDS011;1009;51.436;6.972;2022-11-22T07:29:18;8.17;;;3.47;;
2011;SDS011;1009;51.436;6.972;2022-11-22T07:31:46;13.10;;;3.80;;
2011;SDS011;1009;51.436;6.972;2022-11-22T07:34:13;9.37;;;3.77;;
2011;SDS011;1009;51.436;6.972;2022-11-22T07:36:40;8.43;;;4.07;;
2011;SDS011;1009;51.436;6.972;2022-11-22T07:39:06;19.60;;;5.27;;
2011;SDS011;1009;51.436;6.972;2022-11-22T07:41:33;13.57;;;4.47;;
2011;SDS011;1009;51.436;6.972;2022-11-22T07:44:00;19.60;;;5.03;;
2011;SDS011;1009;51.436;6.972;2022-11-22T07:46:27;7.70;;;4.40;;
2011;SDS011;1009;51.436;6.972;2022-11-22T07:48:56;9.10;;;3.70;;
2011;SDS011;1009;51.436;6.972;2022-11-22T07:51:24;10.77;;;5.10;;
2011;SDS011;1009;51.436;6.972;2022-11-22T07:53:51;14.53;;;4.10;;
2011;SDS011;1009;51.436;6.972;2022-11-22T07:56:18;13.90;;;3.90;;
2011;SDS011;1009;51.436;6.972;2022-11-22T07:58:44;14.83;;;3.10;;
2011;SDS011;1009;51.436;6.972;2022-11-22T08:01:11;9.20;;;3.27;;
2011;SDS011;1009;51.436;6.972;2022-11-22T08:03:39;12.33;;;4.33;;
2011;SDS011;1009;51.436;6.972;2022-11-22T08:06:08;10.97;;;3.70;;
2011;SDS011;1009;51.436;6.972;2022-11-22T08:08:36;14.67;;;3.50;;
2011;SDS011;1009;51.436;6.972;2022-11-22T08:11:04;11.87;;;3.60;;
2011;SDS011;1009;51.436;6.972;2022-11-22T08:13:31;16.80;;;3.67;;
2011;SDS011;1009;51.436;6.972;2022-11-22T08:16:00;7.63;;;2.63;;
2011;SDS011;1009;51.436;6.972;2022-11-22T08:18:28;12.50;;;3.47;;
2011;SDS011;1009;51.436;6.972;2022-11-22T08:21:00;11.27;;;3.23;;
2011;SDS011;1009;51.436;6.972;2022-11-22T08:23:29;10.17;;;2.83;;
2011;SDS011;1009;51.436;6.972;2022-11-22T08:25:56;9.30;;;2.63;;
2011;SDS011;1009;51.436;6.972;2022-11-22T08:28:23;12.27;;;3.00;;
2011;SDS011;1009;51.436;6.972;2022-11-22T08:30:50;6.33;;;2.63;;
2011;SDS011;1009;51.436;6.972;2022-11-22T08:33:16;9.37;;;3.07;;
2011;SDS011;1009;51.436;6.972;2022-11-22T08:35:47;10.23;;;3.10;;
2011;SDS011;1009;51.436;6.972;2022-11-22T08:38:14;10.40;;;2.97;;
2011;SDS011;1009;51.436;6.972;2022-11-22T08:40:42;10.60;;;2.93;;
2011;SDS011;1009;51.436;6.972;2022-11-22T08:43:09;10.00;;;3.20;;
2011;SDS011;1009;51.436;6.972;2022-11-22T08:45:36;11.53;;;3.50;;
2011;SDS011;1009;51.436;6.972;2022-11-22T08:48:03;5.57;;;2.77;;
2011;SDS011;1009;51.436;6.972;2022-11-22T08:50:30;6.07;;;2.43;;
2011;SDS011;1009;51.436;6.972;2022-11-22T08:52:59;11.20;;;2.87;;
2011;SDS011;1009;51.436;6.972;2022-11-22T08:55:25;10.10;;;2.40;;
2011;SDS011;1009;51.436;6.972;2022-11-22T08:57:54;6.23;;;2.40;;
2011;SDS011;1009;51.436;6.972;2022-11-22T09:00:23;7.13;;;3.07;;
2011;SDS011;1009;51.436;6.972;2022-11-22T09:02:50;7.77;;;2.60;;
2011;SDS011;1009;51.436;6.972;2022-11-22T09:05:17;9.03;;;2.47;;
2011;SDS011;1009;51.436;6.972;2022-11-22T09:07:44;6.13;;;2.33;;
2011;SDS011;1009;51.436;6.972;2022-11-22T09:10:10;12.10;;;2.43;;
2011;SDS011;1009;51.436;6.972;2022-11-22T09:12:37;7.70;;;2.60;;
2011;SDS011;1009;51.436;6.972;2022-11-22T09:15:10;5.67;;;1.97;;
2011;SDS011;1009;51.436;6.972;2022-11-22T09:17:37;9.07;;;2.43;;
2011;SDS011;1009;51.436;6.972;2022-11-22T09:20:04;8.93;;;2.70;;
2011;SDS011;1009;51.436;6.972;2022-11-22T09:22:31;11.07;;;2.90;;
2011;SDS011;1009;51.436;6.972;2022-11-22T09:24:58;5.80;;;2.03;;
2011;SDS011;1009;51.436;6.972;2022-11-22T09:27:25;8.70;;;2.00;;
2011;SDS011;1009;51.436;6.972;2022-11-22T09:29:52;8.30;;;3.00;;
2011;SDS011;1009;51.436;6.972;2022-11-22T09:32:20;9.70;;;2.50;;
2011;SDS011;1009;51.436;6.972;2022-11-22T09:34:47;6.10;;;2.10;;
2011;SDS011;1009;51.436;6.972;2022-11-22T09:37:13;4.80;;;2.10;;
2011;SDS011;1009;51.436;6.972;2022-11-22T09:39:42;6.97;;;2.40;;
2011;SDS011;1009;51.436;6.972;2022-11-22T09:42:11;7.03;;;2.10;;
2011;SDS011;1009;51.436;6.972;2022-11-22T09:45:01;10.93;;;2.30;;
2011;SDS011;1009;51.436;6.972;2022-11-22T09:47:44;6.90;;;2.70;;
2011;SDS011;1009;51.436;6.972;2022-11-22T09:50:23;5.43;;;1.97;;
2011;SDS011;1009;51.436;6.972;2022-11-22T09:52:54;8.60;;;3.53;;
2011;SDS011;1009;51.436;6.972;2022-11-22T09:55:26;9.77;;;2.50;;
2011;SDS011;1009;51.436;6.972;2022-11-22T09:58:01;6.27;;;1.70;;
2011;SDS011;1009;51.436;6.972;2022-11-22T10:00:35;11.73;;;2.33;;
2011;SDS011;1009;51.436;6.972;2022-11-22T10:03:04;4.27;;;1.70;;
2011;SDS011;1009;51.436;6.972;2022-11-22T10:05:41;5.00;;;1.90;;
2011;SDS011;1009;51.436;6.972;2022-11-22T10:08:18;6.13;;;2.30;;
2011;SDS011;1009;51.436;6.972;2022-11-22T10:10:52;7.60;;;2.23;;
2011;SDS011;1009;51.436;6.972;2022-11-22T10:13:22;7.07;;;2.03;;
2011;SDS011;1009;51.436;6.972;2022-11-22T10:15:56;9.93;;;2.53;;
2011;SDS011;1009;51.436;6.972;2022-11-22T10:18:33;6.97;;;1.63;;
2011;SDS011;1009;51.436;6.972;2022-11-22T10:21:06;7.90;;;1.93;;
2011;SDS011;1009;51.436;6.972;2022-11-22T10:23:36;5.03;;;1.70;;
2011;SDS011;1009;51.436;6.972;2022-11-22T10:26:04;8.47;;;2.63;;
2011;SDS011;1009;51.436;6.972;2022-11-22T10:28:45;9.07;;;2.80;;
2011;SDS011;1009;51.436;6.972;2022-11-22T10:31:16;6.23;;;2.20;;
2011;SDS011;1009;51.436;6.972;2022-11-22T10:33:51;10.43;;;2.50;;
2011;SDS011;1009;51.436;6.972;2022-11-22T10:36:27;5.30;;;2.40;;
2011;SDS011;1009;51.436;6.972;2022-11-22T10:39:02;5.33;;;2.13;;
2011;SDS011;1009;51.436;6.972;2022-11-22T10:41:41;7.43;;;2.33;;
2011;SDS011;1009;51.436;6.972;2022-11-22T10:44:18;7.23;;;1.33;;
2011;SDS011;1009;51.436;6.972;2022-11-22T10:46:56;7.70;;;1.80;;
2011;SDS011;1009;51.436;6.972;2022-11-22T10:49:42;6.67;;;2.10;;
2011;SDS011;1009;51.436;6.972;2022-11-22T10:52:16;6.73;;;2.27;;
2011;SDS011;1009;51.436;6.972;2022-11-22T10:54:53;5.47;;;1.67;;
2011;SDS011;1009;51.436;6.972;2022-11-22T10:57:28;10.70;;;2.50;;
2011;SDS011;1009;51.436;6.972;2022-11-22T11:00:04;5.47;;;1.63;;
2011;SDS011;1009;51.436;6.972;2022-11-22T11:02:54;8.73;;;1.70;;
2011;SDS011;1009;51.436;6.972;2022-11-22T11:05:39;7.07;;;2.03;;
2011;SDS011;1009;51.436;6.972;2022-11-22T11:08:11;3.97;;;1.77;;
2011;SDS011;1009;51.436;6.972;2022-11-22T11:10:41;8.47;;;2.10;;
2011;SDS011;1009;51.436;6.972;2022-11-22T11:13:13;7.10;;;2.20;;
2011;SDS011;1009;51.436;6.972;2022-11-22T11:15:44;7.80;;;2.43;;
2011;SDS011;1009;51.436;6.972;2022-11-22T11:18:16;5.80;;;2.07;;
2011;SDS011;1009;51.436;6.972;2022-11-22T11:20:48;8.77;;;1.90;;
2011;SDS011;1009;51.436;6.972;2022-11-22T11:23:17;6.10;;;2.60;;
2011;SDS011;1009;51.436;6.972;2022-11-22T11:25:44;10.23;;;1.77;;
2011;SDS011;1009;51.436;6.972;2022-11-22T11:28:15;3.93;;;1.40;;
2011;SDS011;1009;51.436;6.972;2022-11-22T11:30:45;6.90;;;1.90;;
2011;SDS011;1009;51.436;6.972;2022-11-22T11:33:22;4.70;;;2.13;;
2011;SDS011;1009;51.436;6.972;2022-11-22T11:35:52;4.50;;;1.60;;
2011;SDS011;1009;51.436;6.972;2022-11-22T11:38:28;7.83;;;1.53;;
2011;SDS011;1009;51.436;6.972;2022-11-22T11:43:47;3.40;;;0.90;;
2011;SDS011;1009;51.436;6.972;2022-11-22T11:46:16;3.90;;;1.60;;
2011;SDS011;1009;51.436;6.972;2022-11-22T11:48:44;2.97;;;1.20;;
2011;SDS011;1009;51.436;6.972;2022-11-22T11:51:17;5.50;;;1.33;;
2011;SDS011;1009;51.436;6.972;2022-11-22T11:53:57;3.93;;;1.33;;
2011;SDS011;1009;51.436;6.972;2022-11-22T11:56:27;4.40;;;1.70;;
2011;SDS011;1009;51.436;6.972;2022-11-22T11:58:58;6.70;;;1.80;;
2011;SDS011;1009;51.436;6.972;2022-11-22T12:01:28;3.23;;;1.50;;
2011;SDS011;1009;51.436;6.972;2022-11-22T12:03:59;3.27;;;1.50;;
2011;SDS011;1009;51.436;6.972;2022-11-22T12:06:30;4.03;;;1.43;;
2011;SDS011;1009;51.436;6.972;2022-11-22T12:08:58;3.53;;;1.17;;
2011;SDS011;1009;51.436;6.972;2022-11-22T12:11:30;5.43;;;2.50;;
2011;SDS011;1009;51.436;6.972;2022-11-22T12:14:02;6.10;;;1.70;;
2011;SDS011;1009;51.436;6.972;2022-11-22T12:16:32;2.70;;;1.27;;
2011;SDS011;1009;51.436;6.972;2022-11-22T12:19:03;2.73;;;1.53;;
2011;SDS011;1009;51.436;6.972;2022-11-22T12:21:43;5.73;;;1.40;;
2011;SDS011;1009;51.436;6.972;2022-11-22T12:24:20;3.80;;;1.20;;
2011;SDS011;1009;51.436;6.972;2022-11-22T12:26:50;5.53;;;1.40;;
2011;SDS011;1009;51.436;6.972;2022-11-22T12:29:19;3.60;;;1.27;;
2011;SDS011;1009;51.436;6.972;2022-11-22T12:31:47;4.93;;;1.53;;
2011;SDS011;1009;51.436;6.972;2022-11-22T12:34:19;4.43;;;1.10;;
2011;SDS011;1009;51.436;6.972;2022-11-22T12:36:51;6.03;;;1.30;;
2011;SDS011;1009;51.436;6.972;2022-11-22T12:39:20;4.17;;;1.13;;
2011;SDS011;1009;51.436;6.972;2022-11-22T12:41:51;2.17;;;1.03;;
2011;SDS011;1009;51.436;6.972;2022-11-22T12:44:22;4.30;;;1.10;;
2011;SDS011;1009;51.436;6.972;2022-11-22T12:46:51;2.97;;;1.40;;
2011;SDS011;1009;51.436;6.972;2022-11-22T12:49:26;3.27;;;1.00;;
2011;SDS011;1009;51.436;6.972;2022-11-22T12:52:01;9.03;;;1.57;;
2011;SDS011;1009;51.436;6.972;2022-11-22T12:54:37;3.60;;;1.30;;
2011;SDS011;1009;51.436;6.972;2022-11-22T12:57:10;4.27;;;1.30;;
2011;SDS011;1009;51.436;6.972;2022-11-22T12:59:45;6.97;;;1.30;;
2011;SDS011;1009;51.436;6.972;2022-11-22T13:02:19;3.77;;;1.10;;
2011;SDS011;1009;51.436;6.972;2022-11-22T13:04:55;3.57;;;0.97;;
2011;SDS011;1009;51.436;6.972;2022-11-22T13:07:29;2.03;;;1.17;;
2011;SDS011;1009;51.436;6.972;2022-11-22T13:10:17;2.13;;;0.90;;
2011;SDS011;1009;51.436;6.972;2022-11-22T13:12:49;2.93;;;1.07;;
2011;SDS011;1009;51.436;6.972;2022-11-22T13:15:18;3.03;;;1.20;;
2011;SDS011;1009;51.436;6.972;2022-11-22T13:17:52;3.83;;;1.20;;
2011;SDS011;1009;51.436;6.972;2022-11-22T13:20:19;1.87;;;1.10;;
2011;SDS011;1009;51.436;6.972;2022-11-22T13:22:52;3.20;;;1.20;;
2011;SDS011;1009;51.436;6.972;2022-11-22T13:25:30;6.37;;;1.03;;
2011;SDS011;1009;51.436;6.972;2022-11-22T13:28:08;3.23;;;1.00;;
2011;SDS011;1009;51.436;6.972;2022-11-22T13:30:37;1.60;;;0.90;;
2011;SDS011;1009;51.436;6.972;2022-11-22T13:33:05;2.90;;;1.40;;
2011;SDS011;1009;51.436;6.972;2022-11-22T13:35:48;2.50;;;1.20;;
2011;SDS011;1009;51.436;6.972;2022-11-22T13:38:16;2.10;;;1.00;;
2011;SDS011;1009;51.436;6.972;2022-11-22T13:40:44;2.80;;;1.00;;
2011;SDS011;1009;51.436;6.972;2022-11-22T13:43:30;4.93;;;1.10;;
2011;SDS011;1009;51.436;6.972;2022-11-22T13:49:28;2.77;;;1.10;;
2011;SDS011;1009;51.436;6.972;2022-11-22T13:51:59;6.43;;;1.10;;
2011;SDS011;1009;51.436;6.972;2022-11-22T13:54:37;1.83;;;0.80;;
2011;SDS011;1009;51.436;6.972;2022-11-22T14:03:25;2.57;;;0.97;;
2011;SDS011;1009;51.436;6.972;2022-11-22T14:06:13;2.17;;;0.97;;
2011;SDS011;1009;51.436;6.972;2022-11-22T14:11:42;6.03;;;1.33;;
2011;SDS011;1009;51.436;6.972;2022-11-22T14:14:16;6.50;;;1.77;;
2011;SDS011;1009;51.436;6.972;2022-11-22T14:16:50;3.33;;;0.97;;
2011;SDS011;1009;51.436;6.972;2022-11-22T14:19:30;3.40;;;1.27;;
2011;SDS011;1009;51.436;6.972;2022-11-22T14:25:00;1.97;;;0.90;;
2011;SDS011;1009;51.436;6.972;2022-11-22T14:27:50;1.90;;;1.10;;
2011;SDS011;1009;51.436;6.972;2022-11-22T14:30:20;3.20;;;1.00;;
2011;SDS011;1009;51.436;6.972;2022-11-22T14:32:52;1.63;;;1.00;;
2011;SDS011;1009;51.436;6.972;2022-11-22T14:35:33;1.80;;;0.87;;
2011;SDS011;1009;51.436;6.972;2022-11-22T14:38:02;2.33;;;1.27;;
2011;SDS011;1009;51.436;6.972;2022-11-22T14:40:45;3.40;;;1.27;;
2011;SDS011;1009;51.436;6.972;2022-11-22T14:43:24;3.30;;;0.90;;
2011;SDS011;1009;51.436;6.972;2022-11-22T14:45:54;2.30;;;1.10;;
2011;SDS011;1009;51.436;6.972;2022-11-22T14:48:25;1.93;;;1.10;;
2011;SDS011;1009;51.436;6.972;2022-11-22T14:50:58;3.30;;;1.17;;
2011;SDS011;1009;51.436;6.972;2022-11-22T14:53:35;2.60;;;1.60;;
2011;SDS011;1009;51.436;6.972;2022-11-22T14:56:06;2.00;;;1.13;;
2011;SDS011;1009;51.436;6.972;2022-11-22T14:58:41;1.60;;;1.50;;
2011;SDS011;1009;51.436;6.972;2022-11-22T15:01:25;2.33;;;1.20;;
2011;SDS011;1009;51.436;6.972;2022-11-22T15:04:24;2.97;;;1.23;;
2011;SDS011;1009;51.436;6.972;2022-11-22T15:07:18;3.73;;;1.60;;
2011;SDS011;1009;51.436;6.972;2022-11-22T15:10:08;4.33;;;1.33;;
2011;SDS011;1009;51.436;6.972;2022-11-22T15:13:06;3.70;;;1.00;;
2011;SDS011;1009;51.436;6.972;2022-11-22T15:15:42;2.43;;;1.50;;
2011;SDS011;1009;51.436;6.972;2022-11-22T15:18:15;1.80;;;1.07;;
2011;SDS011;1009;51.436;6.972;2022-11-22T15:20:44;2.83;;;1.20;;
2011;SDS011;1009;51.436;6.972;2022-11-22T15:23:17;2.67;;;1.07;;
2011;SDS011;1009;51.436;6.972;2022-11-22T15:25:46;2.50;;;0.90;;
2011;SDS011;1009;51.436;6.972;2022-11-22T15:28:14;1.93;;;1.10;;
2011;SDS011;1009;51.436;6.972;2022-11-22T15:30:44;1.97;;;0.97;;
2011;SDS011;1009;51.436;6.972;2022-11-22T15:33:14;1.57;;;0.97;;
2011;SDS011;1009;51.436;6.972;2022-11-22T15:35:57;1.83;;;0.90;;
2011;SDS011;1009;51.436;6.972;2022-11-22T15:38:46;2.50;;;0.83;;
2011;SDS011;1009;51.436;6.972;2022-11-22T15:41:14;1.47;;;0.60;;
2011;SDS011;1009;51.436;6.972;2022-11-22T15:43:43;2.00;;;0.93;;
2011;SDS011;1009;51.436;6.972;2022-11-22T15:46:13;1.70;;;1.20;;